Date,TemperatureHighF,TemperatureAvgF,TemperatureLowF,DewpointHighF,DewpointAvgF,DewpointLowF,HumidityHigh,HumidityAvg,HumidityLow,PressureMaxIn,PressureMinIn,WindSpeedMaxMPH,WindSpeedAvgMPH,GustSpeedMaxMPH,PrecipitationSumIn
2013-1-1,33.7,31.1,24.6,31.7,28.4,19.9,95,89,81,30.11,29.99,6,1,10,0.00
2013-1-2,28.9,22.6,15.0,19.9,16.8,12.5,90,79,64,30.29,30.08,4,0,10,0.05
2013-1-3,35.0,21.4,6.0,24.8,15.9,3.5,94,80,64,30.30,30.18,6,1,11,0.08
2013-1-4,35.1,30.4,28.0,25.9,23.5,21.0,82,76,65,30.29,30.18,6,2,10,0.01
2013-1-5,36.7,30.6,26.1,29.5,24.5,19.8,92,78,67,30.43,30.18,4,1,8,0.04
2013-1-6,39.6,35.2,29.0,33.6,30.1,25.4,89,82,71,30.23,30.02,4,0,9,0.13
2013-1-7,36.5,31.1,18.4,30.8,26.5,16.2,92,83,70,30.48,30.23,4,0,10,0.04
2013-1-8,45.9,27.9,14.5,33.6,23.1,12.4,96,84,59,30.42,30.29,3,0,7,0.04
2013-1-9,47.4,33.3,20.9,42.9,31.1,19.2,96,92,81,30.52,30.27,4,0,9,0.04
2013-1-10,42.3,33.8,23.7,35.6,29.2,22.2,96,84,69,30.64,30.31,2,0,5,0.00
2013-1-11,51.8,42.9,36.0,50.3,40.1,31.4,97,90,76,30.32,29.98,3,0,8,0.19
2013-1-12,63.8,49.9,37.2,59.0,48.3,36.2,98,94,82,30.11,29.96,3,0,6,0.01
2013-1-13,68.3,57.9,45.4,59.4,53.6,44.3,98,87,70,29.96,29.85,7,1,12,0.22
2013-1-14,57.5,41.0,32.9,56.7,35.8,27.0,97,82,67,30.37,29.87,10,2,18,0.05
2013-1-15,34.2,31.2,26.2,31.0,26.3,23.1,93,82,75,30.42,30.10,4,1,8,0.03
2013-1-16,35.4,33.9,32.8,34.4,32.5,31.0,96,95,91,30.11,29.91,4,0,6,0.38
2013-1-17,36.0,33.4,30.6,31.4,30.2,28.3,93,88,82,30.21,30.04,3,0,6,0.02
2013-1-18,32.7,28.4,20.6,29.0,18.8,11.0,89,67,58,30.53,30.16,9,3,16,0.01
2013-1-19,53.3,41.6,27.8,28.2,23.5,17.6,72,49,33,30.29,29.84,7,2,13,0.04
2013-1-20,47.8,37.5,25.3,34.3,23.7,15.9,71,58,46,30.14,29.78,9,4,18,0.00
2013-1-21,28.8,23.7,14.6,21.5,16.1,4.4,85,73,60,30.12,29.93,8,2,15,0.00
2013-1-22,16.1,12.0,8.7,6.4,3.2,0.9,77,67,57,30.34,30.08,7,3,13,0.00
2013-1-23,18.3,13.1,4.9,12.4,5.3,1.0,84,71,55,30.37,30.12,11,1,11,0.00
2013-1-24,24.1,17.7,9.4,14.5,10.0,1.4,89,73,41,30.59,30.10,9,3,16,0.01
2013-1-25,21.2,16.8,10.1,18.5,12.3,5.7,96,82,69,30.57,30.07,5,0,7,0.00
2013-1-26,30.0,23.7,12.8,25.1,20.0,9.1,92,86,77,30.49,30.13,4,0,8,0.05
2013-1-27,32.4,21.9,5.3,24.2,15.6,2.5,93,78,59,30.60,30.36,2,0,5,0.12
2013-1-28,49.6,40.0,31.1,48.7,38.1,24.2,100,93,74,30.36,30.03,2,0,7,0.45
2013-1-29,65.5,53.2,46.3,58.1,50.7,44.6,98,92,75,30.07,29.77,4,1,9,0.01
2013-1-30,69.6,56.9,47.3,59.5,53.2,45.5,96,88,66,29.78,29.21,9,2,14,0.97
2013-1-31,48.7,30.6,24.3,45.6,25.1,17.0,91,80,64,29.87,29.19,8,4,20,0.04
2013-2-1,24.6,17.9,11.6,21.7,11.3,5.7,89,75,66,30.39,29.83,7,3,14,0.00
2013-2-2,25.2,17.9,6.2,22.7,14.1,3.4,92,85,75,30.38,30.02,5,1,12,0.00
2013-2-3,28.7,24.0,19.4,25.6,21.2,15.1,93,89,79,30.07,29.85,6,1,9,0.07
2013-2-4,28.8,23.6,18.2,25.8,19.5,13.3,93,84,70,30.12,29.89,3,1,9,0.02
2013-2-5,33.1,30.0,27.6,31.5,28.2,25.8,94,93,90,29.97,29.84,1,0,5,0.00
2013-2-6,32.7,27.7,14.1,28.5,23.9,11.7,94,86,69,30.36,29.97,5,1,10,0.02
2013-2-7,43.3,28.6,12.5,32.3,23.3,10.1,93,81,64,30.35,30.01,4,1,8,0.06
2013-2-8,40.7,32.3,27.7,37.2,29.5,23.6,95,89,80,30.16,29.81,9,2,21,0.13
2013-2-9,34.3,26.3,17.1,24.0,20.1,14.7,90,78,58,30.42,30.16,11,3,14,0.01
2013-2-10,52.9,34.2,13.7,32.1,21.4,11.6,100,64,33,30.40,29.99,3,1,7,0.01
2013-2-11,62.8,47.8,38.9,50.2,38.0,28.5,97,72,36,30.00,29.64,8,3,15,0.07
2013-2-12,42.9,36.8,25.6,30.7,28.1,22.8,89,71,60,30.07,29.91,7,2,12,0.00
2013-2-13,40.8,30.6,21.3,33.8,27.2,19.3,100,87,68,29.94,29.69,3,0,5,0.03
2013-2-14,42.4,35.2,28.5,35.8,31.4,26.3,95,86,74,29.98,29.88,5,1,8,0.17
2013-2-15,40.5,35.4,29.3,35.9,31.2,26.4,94,85,69,30.07,29.92,5,1,9,0.00
2013-2-16,31.3,27.8,24.8,27.0,21.9,17.7,92,79,62,30.06,29.96,4,0,5,0.09
2013-2-17,22.9,20.3,14.6,17.9,11.7,6.7,82,69,63,30.31,30.11,8,4,13,0.01
2013-2-18,43.4,21.0,2.2,29.9,14.2,-0.8,91,77,48,30.37,29.94,4,0,6,0.02
2013-2-19,44.4,36.2,27.7,40.4,32.5,25.2,92,86,78,29.94,29.69,7,3,12,0.18
2013-2-20,24.1,22.3,20.5,17.5,15.9,13.7,85,76,66,30.23,30.07,5,2,11,0.18
2013-2-21,26.5,22.7,18.7,20.2,17.2,15.2,88,79,69,30.39,30.20,7,2,11,0.00
2013-2-22,39.5,32.6,22.5,35.7,27.5,17.0,93,82,62,30.32,30.01,7,2,13,0.02
2013-2-23,46.2,36.3,29.1,40.2,33.1,27.3,94,88,77,30.03,29.86,4,0,7,0.00
2013-2-24,32.9,29.6,25.0,28.5,25.7,23.5,95,86,73,30.17,29.87,5,1,10,0.00
2013-2-25,42.5,35.9,26.4,29.0,26.2,22.8,86,69,54,30.21,30.07,4,1,9,0.00
2013-2-26,41.5,35.7,24.5,37.5,30.2,21.6,94,81,58,30.10,29.59,8,2,12,0.63
2013-2-27,43.6,39.8,35.0,40.4,37.3,32.9,96,91,81,29.68,29.56,4,1,8,0.26
2013-2-28,35.1,34.1,33.5,33.6,32.0,30.4,96,92,87,29.81,29.63,4,0,6,0.11
2013-3-1,33.6,31.6,28.7,32.1,28.0,23.9,94,86,81,29.99,29.81,5,3,10,0.04
2013-3-2,30.3,28.0,26.5,25.5,23.5,21.7,89,83,79,29.98,29.92,7,2,9,0.01
2013-3-3,29.9,27.6,24.7,25.1,22.7,20.1,90,82,72,29.98,29.93,6,2,10,0.01
2013-3-4,38.2,31.3,22.4,25.5,22.6,19.6,90,71,55,29.92,29.84,6,2,11,0.01
2013-3-5,47.2,33.2,17.8,31.2,20.9,13.5,94,65,29,29.90,29.48,9,2,20,0.00
2013-3-6,41.3,36.1,32.6,34.9,31.6,29.2,95,84,67,30.23,29.47,7,1,22,0.51
2013-3-7,41.7,36.8,34.1,34.0,31.3,29.3,89,81,64,30.41,30.22,7,2,12,0.00
2013-3-8,39.2,33.5,25.2,32.1,28.4,22.8,92,82,72,30.54,30.33,6,2,11,0.00
2013-3-9,54.9,35.9,19.8,34.5,27.6,17.9,96,75,41,30.35,29.99,3,0,5,0.00
2013-3-10,69.7,51.5,31.3,41.6,35.0,27.6,92,58,31,30.00,29.80,7,1,9,0.00
2013-3-11,63.7,55.2,45.4,49.8,40.1,35.3,91,59,37,29.82,29.49,7,2,0,0.11
2013-3-12,51.8,41.2,37.3,49.5,37.2,30.8,94,86,73,29.80,29.54,6,1,0,0.05
2013-3-13,40.1,33.1,28.8,33.6,28.4,21.4,93,83,63,29.95,29.73,8,2,0,0.05
2013-3-14,39.0,30.4,26.3,25.8,21.4,-99.9,80,71,52,30.09,29.94,8,-2,0,0.00
2013-3-15,50.6,37.4,21.8,38.5,29.2,19.2,92,74,58,30.09,29.74,5,1,0,0.01
2013-3-16,41.6,38.3,35.3,40.3,36.2,32.9,97,92,88,29.89,29.55,5,1,0,0.04
2013-3-17,37.9,32.4,29.9,33.2,22.2,-99.9,92,73,62,30.13,29.88,7,-36,0,0.00
2013-3-18,42.6,35.9,30.8,38.7,31.4,24.4,93,84,70,30.10,29.62,10,3,0,0.36
2013-3-19,47.7,39.6,31.0,41.9,30.9,20.8,95,72,48,29.89,29.62,9,3,0,0.06
2013-3-20,41.7,32.0,26.4,27.2,15.2,-99.9,76,59,47,29.91,29.74,7,-53,0,0.00
2013-4-17,67.8,62.2,55.5,59.2,56.0,51.6,95,81,71,30.25,30.09,3,1,9,0.00
2013-4-18,84.5,71.9,55.4,66.0,60.3,52.9,95,69,48,30.11,29.77,9,2,18,0.00
2013-4-19,73.1,56.0,45.2,63.4,47.3,34.4,89,73,62,29.86,29.47,9,2,17,0.11
2013-4-20,49.5,42.3,31.7,35.6,31.2,26.8,84,66,47,30.43,29.85,12,2,16,0.01
2013-4-21,54.0,40.7,24.7,31.4,26.4,22.7,95,61,34,30.64,30.43,8,1,13,0.00
2013-4-22,61.9,50.1,36.8,37.3,31.8,26.8,84,52,29,30.50,30.30,9,2,13,0.00
2013-4-23,69.9,53.8,33.3,46.3,38.5,30.7,94,60,31,30.31,29.98,6,1,10,0.00
2013-4-24,72.2,55.2,41.3,58.3,47.6,36.5,94,77,55,30.17,29.74,13,2,19,0.29
2013-4-25,59.2,46.7,33.2,41.2,35.9,31.4,95,69,38,30.38,30.17,9,1,15,0.02
2013-4-26,60.4,47.9,33.2,42.2,36.6,31.7,97,69,36,30.50,30.38,6,1,9,0.00
2013-4-27,73.4,55.5,32.4,45.9,38.4,30.6,96,59,31,30.42,30.18,6,1,11,0.00
2013-4-28,60.6,55.1,45.9,54.0,48.6,41.8,92,79,58,30.18,29.96,8,2,14,0.15
2013-4-29,65.4,58.3,53.6,59.4,54.0,49.1,95,86,76,30.03,29.95,5,0,9,0.06
2013-4-30,71.8,61.0,50.7,58.3,53.9,49.1,97,79,59,30.20,30.03,9,2,16,0.00
2013-5-1,75.4,65.1,48.2,58.1,46.4,38.4,96,54,36,30.32,30.20,10,2,18,0.00
2013-5-2,77.0,60.1,41.4,46.6,41.7,34.0,93,56,24,30.36,30.21,9,2,16,0.00
2013-5-3,72.8,59.0,39.8,49.9,44.2,36.7,94,62,31,30.27,30.17,11,3,20,0.00
2013-5-4,71.1,58.7,39.9,50.0,43.8,36.8,91,59,38,30.23,30.09,12,2,19,0.00
2013-5-5,73.2,58.4,40.3,45.1,38.7,29.5,96,55,22,30.16,30.03,11,3,17,0.00
2013-5-6,69.7,58.0,39.5,56.7,48.8,37.0,94,72,55,30.10,30.01,11,3,18,0.00
2013-5-7,68.4,61.6,56.6,59.3,56.2,53.7,93,83,68,30.03,29.94,8,2,15,0.09
2013-5-8,74.2,65.0,52.4,56.8,53.8,50.8,97,69,46,29.99,29.88,6,1,11,0.19
2013-5-9,76.4,61.7,50.2,63.1,56.0,49.1,98,83,49,30.00,29.90,4,0,10,0.06
2013-5-10,75.8,61.0,52.2,67.4,58.4,50.6,97,92,70,30.01,29.81,5,0,8,0.47
2013-5-11,60.8,57.6,50.7,60.2,55.7,48.9,100,94,85,29.85,29.77,5,0,9,0.22
2013-5-12,53.9,48.9,39.5,50.2,38.5,33.4,96,68,49,30.07,29.83,9,1,17,0.00
2013-5-13,54.9,44.2,31.7,37.3,32.2,27.8,95,65,40,30.21,30.07,9,1,13,0.00
2013-5-14,61.6,46.6,28.7,47.5,37.4,27.1,96,73,49,30.23,29.92,8,0,13,0.00
2013-5-15,85.7,66.7,47.8,69.0,58.3,44.7,95,76,52,29.92,29.71,6,1,12,0.01
2013-5-16,79.0,68.1,57.0,66.9,60.2,54.7,97,78,45,29.97,29.76,6,0,11,0.23
2013-5-17,81.3,66.3,52.9,66.5,58.8,51.5,98,80,41,30.10,29.97,5,0,9,0.00
2013-5-18,82.5,61.3,51.0,65.4,55.2,49.5,97,82,49,30.13,30.02,6,0,12,0.00
2013-5-19,77.7,68.0,55.7,67.8,62.1,54.3,97,82,68,30.10,29.97,6,1,10,0.07
2013-5-20,84.6,71.4,58.3,73.8,66.0,57.2,98,84,61,30.03,29.90,4,0,9,0.01
2013-5-21,85.6,73.7,61.4,75.0,68.2,60.4,98,84,61,29.95,29.81,3,0,6,0.00
2013-5-22,85.5,70.9,61.3,72.3,65.5,60.2,98,84,60,29.88,29.75,4,0,12,0.03
2013-5-23,77.6,65.0,53.0,68.1,62.4,51.0,100,92,65,29.87,29.76,9,0,18,0.86
2013-5-24,52.8,46.5,40.5,51.1,41.1,34.9,95,82,63,30.31,29.87,11,3,16,0.05
2013-5-25,62.5,47.5,31.5,45.9,38.1,30.1,97,73,43,30.34,30.24,11,2,17,0.00
2013-5-26,67.8,51.4,33.6,47.2,40.6,32.1,97,71,39,30.32,30.22,9,1,14,0.00
2013-5-27,63.2,53.3,36.8,52.9,45.8,35.3,97,77,57,30.30,30.11,4,0,5,0.00
2013-5-28,79.4,65.0,54.9,70.8,61.1,50.9,99,88,69,30.11,29.98,2,0,6,0.28
2013-5-29,84.7,71.8,60.4,71.1,64.5,59.0,97,79,57,30.09,30.01,4,0,8,0.00
2013-5-30,86.7,75.4,57.6,75.4,67.6,56.5,98,78,54,30.18,30.06,2,0,8,0.00
2013-5-31,87.0,74.0,60.1,73.6,66.9,59.2,99,80,59,30.11,29.97,3,0,8,0.00
2013-6-1,86.0,75.4,65.8,74.0,68.5,63.4,95,80,61,30.00,29.80,4,0,8,0.00
2013-6-2,80.7,72.2,64.8,70.2,66.7,62.8,97,84,62,29.85,29.77,4,0,9,0.16
2013-6-3,66.6,62.9,53.0,64.6,57.4,44.8,95,83,65,30.06,29.85,6,1,11,0.00
2013-6-4,73.4,57.9,39.3,56.9,48.0,37.7,97,72,46,30.18,30.06,5,0,11,0.00
2013-6-5,82.5,65.7,47.2,71.5,57.2,45.8,96,76,57,30.15,29.93,6,0,11,0.00
2013-6-6,70.0,65.3,62.9,66.3,62.9,60.7,97,92,79,29.94,29.77,4,0,9,1.67
2013-6-7,67.1,64.3,59.9,64.1,61.9,56.6,98,92,87,29.84,29.73,7,1,11,0.00
2013-6-8,72.4,63.8,56.7,63.4,58.1,54.4,95,82,63,30.11,29.84,3,0,7,0.00
2013-6-9,83.3,69.9,53.7,69.4,62.1,52.6,98,78,54,30.17,30.00,7,1,14,0.00
2013-6-10,75.8,69.1,64.1,71.9,67.2,62.9,97,94,86,30.01,29.77,3,0,7,0.42
2013-6-11,76.6,68.2,63.1,70.9,65.4,62.2,97,91,73,29.88,29.78,4,0,10,0.02
2013-6-12,83.1,71.9,59.9,74.5,68.2,58.9,99,89,64,29.90,29.73,7,0,11,0.00
2013-6-13,72.2,67.8,62.0,71.3,65.9,57.2,98,94,81,29.77,29.48,12,1,21,1.88
2013-6-14,74.3,64.0,54.7,64.7,58.6,53.4,97,84,61,30.06,29.77,5,0,10,0.00
2013-6-15,78.1,64.9,49.3,63.4,56.7,48.2,98,77,45,30.14,30.00,4,0,9,0.00
2013-6-16,72.3,66.4,62.0,69.6,64.4,59.1,97,93,87,30.02,29.90,1,0,4,0.30
2013-6-17,82.7,72.4,64.2,72.0,66.9,62.7,96,84,59,29.97,29.87,3,0,6,0.00
2013-6-18,78.0,69.3,61.5,71.1,65.6,60.6,98,89,74,29.93,29.82,2,0,6,0.01
2013-6-19,76.3,65.9,53.5,61.6,56.1,50.9,93,73,42,30.15,29.93,7,1,12,0.00
2013-6-20,81.0,65.8,47.9,66.6,56.5,46.8,98,75,43,30.23,30.14,4,0,7,0.00
2013-6-21,84.6,69.5,52.6,68.8,61.0,51.6,98,77,47,30.25,30.14,4,0,9,0.00
2013-6-22,86.3,72.6,57.5,76.1,67.1,56.6,98,84,65,30.20,30.05,3,0,9,0.00
2013-6-23,88.0,75.2,62.9,76.8,69.6,62.0,99,84,60,30.15,30.03,1,0,4,0.00
2013-6-24,88.5,76.2,63.7,76.7,69.9,62.8,99,82,57,30.12,29.98,2,0,6,0.00
2013-7-4,-200.0,0.0,200.0,-99.9,-99.9,-99.9,79,79,79,30.09,30.09,0,0,0,0.00
2013-7-5,-200.0,0.0,200.0,-99.9,-99.9,-99.9,79,79,79,30.09,30.09,0,0,0,0.00
2013-7-6,-200.0,0.0,200.0,-99.9,-99.9,-99.9,79,79,79,30.09,30.09,0,0,0,0.00
2013-7-7,-200.0,0.0,200.0,-99.9,-99.9,-99.9,79,79,79,30.10,30.00,0,0,0,0.00
2013-7-8,76.5,7.5,71.0,70.8,-82.2,-99.9,96,81,79,30.12,30.02,3,-1,9,0.00
2013-7-9,81.8,73.0,68.0,77.5,71.2,67.0,99,94,84,30.10,29.95,3,0,9,1.17
2013-7-10,85.5,73.3,66.1,80.3,71.5,65.2,100,94,73,30.00,29.80,13,0,24,1.95
2013-7-11,76.8,68.7,63.1,67.3,64.4,60.6,99,87,64,29.98,29.88,2,0,11,0.00
2013-7-12,75.2,69.6,56.4,68.6,65.2,55.6,98,86,74,30.11,29.98,2,0,9,0.01
2013-7-13,83.6,72.7,61.6,73.0,67.3,60.4,98,84,64,30.22,30.09,3,0,8,0.00
2013-7-14,90.2,77.9,66.5,78.4,71.3,65.5,98,82,58,30.29,30.21,4,0,14,0.00
2013-7-15,90.8,78.2,66.6,79.2,72.3,65.7,99,83,61,30.32,30.21,1,0,4,0.00
2013-7-16,91.2,77.9,68.9,79.9,73.2,68.0,99,87,63,30.30,30.21,2,0,19,0.32
2013-7-17,89.6,76.1,68.5,80.7,73.5,67.9,99,92,70,30.29,30.15,3,0,12,0.47
2013-7-18,92.1,79.6,68.4,82.8,75.6,67.8,99,89,69,30.18,30.00,0,0,6,0.00
2013-7-19,90.3,78.3,71.3,81.7,74.9,70.6,99,90,69,30.02,29.84,1,0,8,0.03
2013-7-20,81.7,74.2,69.3,76.5,71.3,67.7,97,91,81,29.92,29.83,3,0,8,0.01
2013-7-21,85.0,73.3,67.3,76.6,70.1,66.3,98,90,71,29.96,29.88,5,0,12,0.36
2013-7-22,82.2,71.1,63.8,76.8,69.4,63.1,99,95,78,29.94,29.76,3,0,16,1.22
2013-7-23,83.8,71.6,63.5,75.4,68.6,62.6,99,91,70,29.77,29.68,8,0,20,0.40
2013-7-24,74.0,65.7,56.6,65.3,59.9,55.2,98,83,61,29.99,29.74,5,1,15,0.00
2013-7-25,76.3,63.4,51.0,62.2,56.1,49.9,98,79,53,30.09,29.99,3,1,10,0.01
2013-7-26,80.2,65.6,50.6,67.7,58.8,49.8,98,81,54,30.11,30.00,1,0,9,0.00
2013-7-27,70.8,64.6,57.7,68.8,63.4,56.8,99,96,89,30.01,29.85,2,0,7,0.94
2013-7-28,76.7,67.2,56.3,67.3,63.3,54.9,98,88,65,30.04,29.85,1,0,11,0.32
2013-7-29,73.6,62.6,50.8,65.0,58.0,50.0,98,86,63,30.20,30.04,1,0,8,0.00
2013-7-30,78.0,64.7,51.8,67.9,59.5,51.0,98,84,58,30.25,30.15,2,0,6,0.00
2013-7-31,80.0,67.0,55.9,71.1,63.7,55.1,99,90,65,30.16,29.96,1,0,6,0.02
2013-8-1,82.0,70.7,63.4,71.4,66.5,61.9,98,87,62,29.96,29.84,3,0,12,0.04
2013-8-2,77.9,67.8,57.1,68.4,62.7,56.3,98,85,58,29.98,29.89,2,0,11,0.00
2013-8-3,75.6,67.4,57.5,70.2,65.2,56.3,98,93,80,29.99,29.91,3,0,10,0.25
2013-8-4,74.5,62.7,52.4,65.1,57.6,51.6,98,85,59,30.09,29.98,6,1,13,0.01
2013-8-5,74.5,62.3,49.2,65.4,57.2,48.1,98,85,54,30.14,30.03,2,0,7,0.01
2013-8-6,80.8,66.9,53.2,68.1,59.9,52.2,98,81,51,30.04,29.97,2,0,8,0.00
2013-8-7,84.4,38.8,59.6,76.7,-7.1,-99.9,97,50,73,30.01,29.91,6,-426,15,0.21
2013-8-8,85.0,51.3,69.1,77.8,14.0,-99.9,99,57,77,29.98,29.88,1,-333,10,0.00
2013-8-9,78.1,73.2,65.9,75.0,71.5,65.0,98,94,85,30.00,29.87,3,0,11,0.30
2013-8-10,81.5,70.6,61.8,73.0,66.4,61.2,99,88,64,30.09,30.00,2,0,8,0.00
2013-8-11,83.1,70.5,60.0,74.3,66.5,59.1,98,88,66,30.12,29.99,2,0,8,0.10
2013-8-12,82.1,72.6,66.4,74.2,68.8,65.8,99,89,69,30.05,29.87,0,0,9,0.01
2013-8-13,79.3,69.9,58.0,71.6,64.8,52.8,97,85,65,29.97,29.78,9,2,18,0.02
2013-8-14,69.4,57.7,47.8,59.9,53.6,46.7,98,87,65,30.16,29.97,4,0,14,0.00
2013-8-15,74.0,59.4,44.9,61.8,52.5,44.0,98,81,51,30.22,30.11,2,0,9,0.01
2013-8-16,78.7,64.7,50.3,65.5,57.1,49.3,98,79,45,30.18,30.12,2,0,8,0.00
2013-8-17,77.7,64.6,52.7,63.9,57.9,51.9,98,81,49,30.26,30.18,4,1,14,0.00
2013-8-18,73.5,66.2,60.1,68.3,63.2,59.0,97,91,76,30.23,30.14,1,0,8,0.03
2013-8-26,83.7,69.8,56.5,72.9,64.9,55.9,99,86,63,30.26,30.04,0,0,7,0.00
2013-8-27,80.7,73.8,68.5,75.6,70.9,67.0,97,91,83,30.03,29.93,1,0,12,0.01
2013-8-28,76.9,71.8,69.7,75.9,70.9,69.1,99,97,91,29.95,29.81,2,0,15,1.36
2013-8-29,84.2,74.4,67.0,74.1,70.3,65.8,98,88,65,30.02,29.90,1,0,10,0.00
2013-8-30,85.5,73.5,61.7,76.2,69.6,61.1,99,89,72,30.01,29.83,0,0,7,0.00
2013-8-31,85.0,74.7,67.6,75.7,71.2,67.0,99,90,69,29.85,29.76,1,0,7,0.01
2013-9-1,79.5,72.1,67.6,73.9,70.2,66.7,98,94,82,29.84,29.77,1,0,8,0.01
2013-9-2,84.0,73.3,66.1,76.8,70.4,65.4,99,91,73,29.83,29.71,2,0,10,0.06
2013-9-3,74.1,65.3,55.6,65.7,60.6,54.1,99,86,63,30.04,29.81,5,1,13,0.01
2013-9-4,77.5,61.8,48.6,65.2,57.0,47.8,99,86,59,30.15,30.04,1,0,7,0.01
2013-9-5,73.5,64.7,54.2,63.3,55.2,50.1,99,73,56,30.21,30.08,6,1,15,0.00
2013-9-6,73.2,57.4,42.4,58.6,48.7,41.1,98,77,39,30.28,30.15,3,0,9,0.00
2013-9-7,78.0,61.1,43.7,65.8,55.0,42.6,98,83,51,30.15,29.96,1,0,6,0.01
2013-9-8,78.3,67.7,59.4,70.8,63.8,58.3,98,88,71,30.05,29.92,3,0,11,0.01
2013-9-9,82.4,67.6,55.5,74.7,64.7,54.7,98,91,74,30.10,29.99,3,0,13,0.26
2013-9-10,88.2,75.6,65.6,80.8,72.5,65.0,99,91,74,30.13,30.04,1,0,7,0.00
2013-9-11,88.3,75.0,69.5,81.0,72.9,68.9,99,94,73,30.14,30.00,3,0,13,0.20
2013-9-12,77.2,70.1,60.6,73.7,68.8,59.3,99,96,84,30.00,29.78,5,0,14,0.24
2013-9-13,67.5,59.5,52.9,60.9,55.5,48.0,98,87,70,30.04,29.80,7,1,16,0.07
2013-9-14,65.0,54.6,45.8,54.9,48.6,44.4,96,81,55,30.19,30.03,3,0,9,0.00
2013-9-15,70.3,56.1,41.1,62.4,51.7,40.1,98,86,63,30.22,30.08,2,0,10,0.01
2013-9-16,69.2,60.5,52.3,59.6,56.1,49.9,98,86,66,30.32,30.08,3,0,10,0.29
2013-9-17,69.0,55.0,44.3,56.5,49.0,43.2,97,82,50,30.41,30.27,3,0,9,0.00
2013-9-18,73.2,56.3,41.4,59.9,50.3,40.3,98,83,53,30.29,30.13,2,0,8,0.01
2013-9-19,76.5,63.9,55.3,66.8,60.6,54.2,98,90,64,30.16,30.03,1,0,7,0.00
2013-9-20,81.1,67.5,53.9,73.2,64.3,53.1,99,90,73,30.05,29.83,1,0,7,0.00
2013-9-21,70.7,62.8,57.3,68.2,61.7,56.5,98,96,88,29.83,29.66,5,0,15,1.18
2013-9-22,63.2,56.7,52.4,56.7,52.7,49.9,99,87,67,30.03,29.79,5,1,12,0.02
2013-9-23,57.3,51.9,40.9,51.0,47.0,39.6,95,84,68,30.17,30.02,2,0,9,0.00
2013-9-24,68.3,50.8,36.0,56.5,45.1,35.0,98,83,52,30.15,29.99,2,0,9,0.00
2013-9-25,74.8,56.6,42.9,61.4,50.0,42.0,98,82,43,30.01,29.89,2,0,9,0.00
2013-9-26,74.5,58.1,43.7,60.7,51.3,42.6,98,81,47,30.08,29.95,3,0,9,0.00
2013-9-27,73.7,57.9,42.6,61.3,51.8,41.5,98,83,54,30.21,30.09,2,0,8,0.01
2013-9-28,72.3,58.2,44.7,59.3,52.0,43.9,98,82,59,30.28,30.17,4,1,14,0.00
2013-9-29,74.3,59.0,44.9,63.7,54.2,43.8,98,85,61,30.17,30.01,3,0,12,0.00
2013-9-30,70.0,59.4,49.0,64.8,57.0,48.0,98,92,81,30.07,29.99,0,0,5,0.00
2013-10-1,76.8,64.2,55.5,66.9,60.3,54.4,98,88,66,30.09,30.00,3,0,10,0.00
2013-10-2,79.0,64.8,53.7,69.9,61.3,52.9,99,89,69,30.11,30.03,1,0,6,0.01
2013-10-3,77.9,66.3,55.1,70.5,63.0,54.3,99,90,73,30.11,30.01,1,0,11,0.07
2013-10-4,80.1,69.1,61.9,72.2,66.5,61.1,99,92,71,30.10,30.01,3,0,12,0.19
2013-10-5,81.9,69.4,62.4,72.8,66.8,61.8,99,92,70,30.09,29.97,2,0,10,0.17
2013-10-6,83.7,71.7,62.6,71.4,65.7,61.9,99,83,57,29.98,29.75,2,0,11,0.00
2013-10-7,70.6,57.1,43.7,63.5,52.2,42.4,96,84,67,30.14,29.68,2,0,12,0.37
2013-10-8,64.5,50.4,37.3,53.2,45.0,36.3,100,84,55,30.33,30.14,5,0,13,0.00
2013-10-9,67.6,51.4,38.2,52.1,44.4,37.2,98,80,47,30.36,30.26,4,0,12,0.01
2013-10-10,69.8,54.9,43.2,52.9,47.1,41.9,97,77,47,30.26,30.11,2,0,10,0.00
2013-10-11,59.1,55.5,52.7,57.5,53.3,49.1,96,92,82,30.11,30.06,2,0,7,0.46
2013-10-12,73.7,61.8,51.2,65.8,58.3,50.1,100,89,72,30.17,30.07,3,0,10,0.00
2013-10-13,70.6,62.3,55.1,62.6,58.6,54.0,98,88,74,30.26,30.16,4,0,11,0.02
2013-10-14,61.9,59.4,56.3,59.7,57.8,55.1,97,94,91,30.30,30.23,2,0,8,0.09
2013-10-15,70.8,60.4,49.2,64.2,57.1,48.4,100,90,71,30.23,29.99,2,0,8,0.01
2013-10-16,63.7,58.2,52.2,61.7,57.0,51.1,100,96,92,30.00,29.88,0,0,3,0.27
2013-10-17,62.7,55.9,49.8,61.2,54.3,48.7,97,94,88,29.92,29.67,7,0,18,0.79
2013-10-18,61.9,51.6,40.5,50.3,46.1,39.1,97,83,57,30.05,29.91,3,0,8,0.00
2013-10-19,54.2,44.6,34.4,50.0,42.1,33.4,98,91,80,30.00,29.79,2,0,12,0.07
2013-10-20,58.1,45.0,35.8,45.7,39.7,34.8,97,83,55,30.08,29.98,3,0,11,0.01
2013-10-21,65.6,48.3,33.0,46.3,39.8,32.0,98,76,40,30.10,29.88,4,0,9,0.00
2013-10-22,52.5,46.5,38.6,48.9,40.4,33.4,94,80,51,29.98,29.85,6,0,16,0.19
2013-10-23,43.2,40.2,35.6,41.3,38.3,34.3,95,93,90,29.96,29.78,7,0,19,0.14
2013-10-24,45.6,38.8,30.8,36.4,34.1,29.0,96,84,63,30.19,29.96,3,0,18,0.00
2013-10-25,47.9,37.7,28.0,38.5,32.6,26.5,100,83,58,30.38,30.18,2,0,10,0.01
2013-10-26,51.4,40.4,27.8,35.9,31.1,26.3,95,72,47,30.30,29.94,4,1,14,0.01
2013-10-27,52.6,41.1,29.0,40.7,33.6,27.1,96,76,52,30.14,30.01,6,0,14,0.00
2013-10-28,58.4,41.0,26.7,42.6,34.3,25.1,97,80,46,30.33,30.14,3,0,8,0.00
2013-10-29,59.2,44.1,29.9,44.8,38.2,28.6,97,82,51,30.41,30.30,3,0,6,0.00
2013-10-30,64.9,51.6,40.3,54.9,47.0,38.1,95,85,64,30.30,30.13,1,0,4,0.00
2013-10-31,67.6,61.6,55.7,61.2,58.1,54.0,97,88,76,30.13,29.48,5,1,16,0.18
2013-11-1,70.7,59.1,44.4,61.6,51.1,42.1,94,76,56,29.70,29.34,6,2,28,0.14
2013-11-2,53.6,48.6,44.9,47.0,44.5,41.9,94,86,70,29.98,29.66,3,0,10,0.02
2013-11-3,48.3,41.2,28.5,42.9,34.6,25.3,95,78,56,30.49,29.97,5,1,15,0.00
2013-11-4,46.9,36.5,25.3,31.6,26.6,23.0,93,70,44,30.60,30.47,4,0,11,0.00
2013-11-5,58.6,45.5,33.8,39.8,34.7,29.9,91,68,43,30.56,30.37,3,0,8,0.00
2013-11-6,72.8,54.3,31.5,57.9,45.4,29.4,96,74,51,30.37,29.94,6,1,16,0.02
2013-11-7,60.7,46.7,39.3,57.6,42.0,29.7,96,84,62,30.15,29.87,9,1,14,0.74
2013-11-8,45.3,37.5,26.0,34.6,30.2,23.9,92,76,55,30.34,30.11,5,1,19,0.00
2013-11-9,57.8,40.8,24.2,35.7,28.7,22.5,96,67,34,30.34,30.00,6,1,15,0.01
2013-11-10,53.4,45.4,31.5,39.6,34.8,27.8,87,67,48,30.30,29.99,5,1,17,0.00
2013-11-11,49.5,39.4,25.9,41.1,32.1,23.9,95,77,46,30.31,30.07,6,1,14,0.04
2013-11-12,39.5,31.8,28.2,36.4,26.9,22.0,93,82,60,30.52,30.12,9,3,17,0.17
2013-11-13,37.1,30.0,20.3,26.9,23.8,18.1,94,78,57,30.58,30.43,3,0,11,0.04
2013-11-14,49.7,34.9,26.1,28.0,24.8,22.1,89,69,39,30.43,30.22,4,1,12,0.00
2013-11-15,56.7,42.6,26.8,40.6,29.6,23.5,89,64,32,30.27,30.17,4,1,12,0.00
2013-11-16,62.2,50.1,32.8,51.0,43.9,30.8,96,80,65,30.27,30.06,3,0,10,0.00
2013-11-17,61.5,56.5,45.4,59.5,54.1,42.9,96,92,83,30.06,29.55,5,1,16,0.54
2013-11-18,57.2,49.7,39.8,53.6,38.6,29.3,88,66,50,30.07,29.64,8,3,22,0.00
2013-11-19,39.8,35.6,24.9,30.4,27.5,22.4,91,72,64,30.45,30.07,7,2,18,0.00
2013-11-20,48.3,33.9,20.4,27.3,21.1,18.0,95,65,30,30.53,30.41,8,2,18,0.00
2013-11-21,57.2,41.9,26.3,43.1,33.5,21.2,90,73,52,30.49,30.26,3,0,10,0.00
2013-11-22,53.7,49.0,38.2,52.9,47.0,33.5,97,93,81,30.26,30.07,11,2,24,0.28
2013-11-23,39.2,32.7,21.7,33.7,25.9,11.0,92,76,57,30.39,30.16,11,3,23,0.00
2013-11-24,27.0,20.7,13.0,16.2,13.2,10.0,88,73,56,30.60,30.38,9,3,20,0.00
2013-11-25,37.8,25.2,11.1,26.5,13.6,8.7,91,65,35,30.58,30.28,3,0,10,0.00
2013-11-26,37.1,34.0,31.8,34.4,32.3,26.8,96,94,66,30.29,29.75,3,0,8,1.07
2013-11-27,34.4,30.1,24.4,33.4,27.0,19.1,96,88,78,30.17,29.74,9,3,16,0.05
2013-11-28,30.5,25.9,16.3,24.4,19.6,13.2,89,77,63,30.48,30.17,2,0,10,0.05
2013-11-29,35.6,27.8,19.7,26.9,22.3,17.4,93,81,61,30.71,30.48,1,0,4,0.07
2013-11-30,40.4,28.2,17.7,27.9,22.6,15.5,94,81,58,30.69,30.29,4,0,11,0.00
2013-12-1,45.8,35.5,23.1,35.7,30.5,21.1,95,83,63,30.29,30.02,2,0,6,0.00
2013-12-2,51.4,41.1,34.3,41.1,36.3,32.1,94,84,66,30.02,29.85,1,0,4,0.00
2013-12-3,55.1,42.1,36.8,45.7,38.5,35.0,97,88,65,29.94,29.88,1,0,5,0.02
2013-12-4,60.6,45.6,32.0,51.4,41.9,30.6,100,88,70,30.03,29.91,1,0,4,0.00
2013-12-5,65.3,54.9,41.5,58.8,52.2,39.9,98,91,75,30.06,29.88,9,1,16,1.24
2013-12-6,41.4,35.4,30.1,39.8,33.5,28.4,95,93,88,30.32,30.04,5,2,11,0.44
2013-12-7,32.6,27.4,19.0,28.6,23.8,16.3,94,86,74,30.64,30.30,3,1,8,0.00
2013-12-8,32.7,25.2,17.5,31.4,21.8,14.6,100,87,80,30.64,30.14,4,1,10,0.00
2013-12-9,39.3,35.5,31.5,38.5,33.2,27.3,97,92,83,30.18,30.01,3,0,8,0.33
2013-12-10,31.5,27.7,22.7,27.5,21.5,15.0,92,78,57,30.32,30.07,4,1,10,0.01
2013-12-11,31.2,24.8,17.4,24.5,17.7,13.2,89,74,59,30.42,30.29,7,1,12,0.00
2013-12-12,23.8,20.4,13.8,16.5,11.0,7.8,83,67,55,30.53,30.33,4,1,11,0.00
2013-12-13,36.3,26.5,16.8,24.3,17.2,8.6,89,68,55,30.33,30.25,3,0,9,0.01
2013-12-14,37.6,33.0,27.4,36.6,30.4,24.0,99,90,77,30.31,29.70,4,0,11,0.40
2013-12-15,39.6,31.5,23.3,38.8,27.8,14.0,97,86,66,30.07,29.66,6,2,14,0.05
2013-12-16,27.0,23.9,21.0,23.9,18.7,15.0,88,80,70,30.23,30.07,4,0,9,0.00
2013-12-17,35.4,31.6,26.8,33.8,28.7,23.8,100,89,78,30.10,29.99,3,0,6,0.07
2013-12-18,31.6,27.0,17.8,26.1,22.6,15.5,94,84,73,30.25,30.08,3,1,8,0.00
2013-12-19,53.7,37.8,23.3,39.5,29.8,21.6,94,74,53,30.17,30.07,4,1,11,0.03
2013-12-20,57.9,49.0,32.4,51.3,42.0,30.3,93,78,54,30.07,29.92,3,1,10,0.05
2013-12-21,60.1,57.0,53.8,59.5,54.9,49.7,98,93,85,29.92,29.66,3,0,7,0.91
2013-12-22,68.2,59.6,54.5,62.3,56.2,49.8,98,89,79,29.94,29.57,8,2,14,0.25
2013-12-23,55.1,40.4,31.7,50.2,36.9,23.5,96,87,71,30.31,29.93,7,1,14,0.13
2013-12-24,31.9,24.7,13.5,25.8,17.9,10.2,90,75,61,30.58,30.26,8,2,16,0.00
2013-12-25,28.1,20.5,10.7,22.9,15.1,8.3,91,80,66,30.59,30.30,3,0,7,0.00
2013-12-26,36.9,30.8,22.5,29.8,25.0,18.3,93,80,61,30.41,30.20,5,1,12,0.05
2013-12-27,42.4,30.1,19.8,31.0,24.3,17.0,92,80,60,30.43,30.33,2,0,5,0.00
2013-12-28,53.2,36.6,24.4,35.4,28.7,22.1,92,75,48,30.33,30.11,5,1,10,0.00
2013-12-29,42.5,39.7,33.6,41.6,37.7,30.1,97,93,80,30.11,29.68,3,0,8,0.62
2013-12-30,40.6,28.9,24.0,39.0,24.9,18.2,94,85,75,30.24,29.87,7,2,15,0.00
2013-12-31,27.5,25.2,22.0,23.7,20.9,17.3,92,84,75,30.38,30.13,7,1,13,0.00
2014-1-1,38.7,30.9,25.7,30.1,25.3,21.3,92,80,68,30.39,30.09,2,0,7,0.02
2014-1-2,31.4,27.8,12.7,28.5,24.9,9.3,93,89,84,30.09,29.71,8,1,12,0.00